地図

経路データ

SID SEASON NUMBER BASIN SUBBASIN NAME ISO_TIME NATURE LAT LON WMO_WIND WMO_PRES WMO_AGENCY TRACK_TYPE DIST2LAND LANDFALL IFLAG USA_AGENCY USA_ATCF_ID USA_LAT USA_LON USA_RECORD USA_STATUS USA_WIND USA_PRES USA_SSHS USA_R34_NE USA_R34_SE USA_R34_SW USA_R34_NW USA_R50_NE USA_R50_SE USA_R50_SW USA_R50_NW USA_R64_NE USA_R64_SE USA_R64_SW USA_R64_NW USA_POCI USA_ROCI USA_RMW USA_EYE TOKYO_LAT TOKYO_LON TOKYO_GRADE TOKYO_WIND TOKYO_PRES TOKYO_R50_DIR TOKYO_R50_LONG TOKYO_R50_SHORT TOKYO_R30_DIR TOKYO_R30_LONG TOKYO_R30_SHORT TOKYO_LAND CMA_LAT CMA_LON CMA_CAT CMA_WIND CMA_PRES HKO_LAT HKO_LON HKO_CAT HKO_WIND HKO_PRES NEWDELHI_LAT NEWDELHI_LON NEWDELHI_GRADE NEWDELHI_WIND NEWDELHI_PRES NEWDELHI_CI NEWDELHI_DP NEWDELHI_POCI REUNION_LAT REUNION_LON REUNION_TYPE REUNION_WIND REUNION_PRES REUNION_TNUM REUNION_CI REUNION_RMW REUNION_R34_NE REUNION_R34_SE REUNION_R34_SW REUNION_R34_NW REUNION_R50_NE REUNION_R50_SE REUNION_R50_SW REUNION_R50_NW REUNION_R64_NE REUNION_R64_SE REUNION_R64_SW REUNION_R64_NW BOM_LAT BOM_LON BOM_TYPE BOM_WIND BOM_PRES BOM_TNUM BOM_CI BOM_RMW BOM_R34_NE BOM_R34_SE BOM_R34_SW BOM_R34_NW BOM_R50_NE BOM_R50_SE BOM_R50_SW BOM_R50_NW BOM_R64_NE BOM_R64_SE BOM_R64_SW BOM_R64_NW BOM_ROCI BOM_POCI BOM_EYE BOM_POS_METHOD BOM_PRES_METHOD NADI_LAT NADI_LON NADI_CAT NADI_WIND NADI_PRES WELLINGTON_LAT WELLINGTON_LON WELLINGTON_WIND WELLINGTON_PRES DS824_LAT DS824_LON DS824_STAGE DS824_WIND DS824_PRES TD9636_LAT TD9636_LON TD9636_STAGE TD9636_WIND TD9636_PRES TD9635_LAT TD9635_LON TD9635_WIND TD9635_PRES TD9635_ROCI NEUMANN_LAT NEUMANN_LON NEUMANN_CLASS NEUMANN_WIND NEUMANN_PRES MLC_LAT MLC_LON MLC_CLASS MLC_WIND MLC_PRES USA_GUST BOM_GUST BOM_GUST_PER REUNION_GUST REUNION_GUST_PER USA_SEAHGT USA_SEARAD_NE USA_SEARAD_SE USA_SEARAD_SW USA_SEARAD_NW STORM_SPEED STORM_DIR
1875259N33318 1875 11 NA NA NOT_NAMED 1875-09-15 12:00:00 TS 32.5000 -42.0000 main 1834 1823 _____________O -1 32.5000 -42.0000 TS 35 5 42
1875259N33318 1875 11 NA NA NOT_NAMED 1875-09-15 15:00:00 TS 32.7001 -41.7902 main 1823 1812 _____________P -1 32.7001 -41.7902 TS 35 5 40
1875259N33318 1875 11 NA NA NOT_NAMED 1875-09-15 18:00:00 TS 32.9000 -41.6000 main 1812 1798 _____________O -1 32.9000 -41.6000 TS 35 5 36
1875259N33318 1875 11 NA NA NOT_NAMED 1875-09-15 21:00:00 TS 33.0999 -41.4424 main 1802 1788 _____________P -1 33.0999 -41.4424 TS 37 5 32
1875259N33318 1875 11 NA NA NOT_NAMED 1875-09-16 00:00:00 TS 33.3000 -41.3000 main 1788 1773 _____________O -1 33.3000 -41.3000 TS 40 5 31
1875259N33318 1875 11 NA NA NOT_NAMED 1875-09-16 03:00:00 TS 33.5075 -41.1500 main 1778 1764 _____________P -1 33.5075 -41.1500 TS 40 5 32
1875259N33318 1875 11 NA NA NOT_NAMED 1875-09-16 06:00:00 TS 33.7000 -41.0000 main 1764 1759 _____________O -1 33.7000 -41.0000 TS 40 4 38
1875259N33318 1875 11 NA NA NOT_NAMED 1875-09-16 09:00:00 TS 33.8350 -40.8498 main 1764 1751 _____________P -1 33.8350 -40.8498 TS 42 4 40
1875259N33318 1875 11 NA NA NOT_NAMED 1875-09-16 12:00:00 TS 34.0000 -40.7000 main 1751 1728 _____________O -1 34.0000 -40.7000 TS 45 5 29
1875259N33318 1875 11 NA NA NOT_NAMED 1875-09-16 15:00:00 TS 34.2850 -40.5426 main 1733 1711 _____________P -1 34.2850 -40.5426 TS 45 7 22
1875259N33318 1875 11 NA NA NOT_NAMED 1875-09-16 18:00:00 TS 34.6000 -40.4000 main 1711 1698 _____________O -1 34.6000 -40.4000 TS 45 6 20
1875259N33318 1875 11 NA NA NOT_NAMED 1875-09-16 21:00:00 TS 34.8500 -40.2923 main 1698 1676 _____________P -1 34.8500 -40.2923 TS 47 5 18
1875259N33318 1875 11 NA NA NOT_NAMED 1875-09-17 00:00:00 TS 35.1000 -40.2000 main 1676 1654 _____________O -1 35.1000 -40.2000 TS 50 6 16
1875259N33318 1875 11 NA NA NOT_NAMED 1875-09-17 03:00:00 TS 35.4000 -40.1000 main 1654 1633 _____________P -1 35.4000 -40.1000 TS 50 6 15
1875259N33318 1875 11 NA NA NOT_NAMED 1875-09-17 06:00:00 TS 35.7000 -40.0000 main 1633 1622 _____________O -1 35.7000 -40.0000 TS 50 6 17
1875259N33318 1875 11 NA NA NOT_NAMED 1875-09-17 09:00:00 TS 35.9425 -39.8924 main 1622 1601 _____________P -1 35.9425 -39.8924 TS 50 5 18
1875259N33318 1875 11 NA NA NOT_NAMED 1875-09-17 12:00:00 TS 36.2000 -39.8000 main 1601 1576 _____________O -1 36.2000 -39.8000 TS 50 6 11
1875259N33318 1875 11 NA NA NOT_NAMED 1875-09-17 15:00:00 TS 36.5350 -39.7424 main 1581 1548 _____________P -1 36.5350 -39.7424 TS 50 7 6
1875259N33318 1875 11 NA NA NOT_NAMED 1875-09-17 18:00:00 TS 36.9000 -39.7000 main 1548 1523 _____________O -1 36.9000 -39.7000 TS 50 7 5
1875259N33318 1875 11 NA NA NOT_NAMED 1875-09-17 21:00:00 TS 37.2499 -39.6795 main 1523 1496 _____________P -1 37.2499 -39.6795 TS 47 7 6
1875259N33318 1875 11 NA NA NOT_NAMED 1875-09-18 00:00:00 TS 37.6000 -39.6000 main 1496 1479 _____________O -1 37.6000 -39.6000 TS 45 7 19
1875259N33318 1875 11 NA NA NOT_NAMED 1875-09-18 03:00:00 TS 37.9501 -39.3802 main 1477 1472 _____________P -1 37.9501 -39.3802 TS 45 8 29
1875259N33318 1875 11 NA NA NOT_NAMED 1875-09-18 06:00:00 TS 38.3000 -39.1000 main 1472 1454 _____________O -1 38.3000 -39.1000 TS 45 8 28
1875259N33318 1875 11 NA NA NOT_NAMED 1875-09-18 09:00:00 TS 38.6873 -38.8725 main 1454 1445 _____________P -1 38.6873 -38.8725 TS 45 8 29
1875259N33318 1875 11 NA NA NOT_NAMED 1875-09-18 12:00:00 TS 39.0000 -38.6000 main 1451 1450 _____________O -1 39.0000 -38.6000 TS 45 7 48
1875259N33318 1875 11 NA NA NOT_NAMED 1875-09-18 15:00:00 TS 39.1375 -38.2295 main 1470 1463 _____________P -1 39.1375 -38.2295 TS 45 7 72
1875259N33318 1875 11 NA NA NOT_NAMED 1875-09-18 18:00:00 TS 39.2000 -37.8000 main 1489 1489 _____________O -1 39.2000 -37.8000 TS 45 7 77
1875259N33318 1875 11 NA NA NOT_NAMED 1875-09-18 21:00:00 TS 39.3000 -37.3499 main 1515 1515 _____________P -1 39.3000 -37.3499 TS 45 7 74
1875259N33318 1875 11 NA NA NOT_NAMED 1875-09-19 00:00:00 TS 39.4000 -36.9000 main 1536 1536 _____________O -1 39.4000 -36.9000 TS 45 7 73
1875259N33318 1875 11 NA NA NOT_NAMED 1875-09-19 03:00:00 TS 39.4998 -36.4924 main 1556 1556 _____________P -1 39.4998 -36.4924 TS 45 6 72
1875259N33318 1875 11 NA NA NOT_NAMED 1875-09-19 06:00:00 TS 39.6000 -36.1000 main 1577 1577 _____________O -1 39.6000 -36.1000 TS 45 6 71
1875259N33318 1875 11 NA NA NOT_NAMED 1875-09-19 09:00:00 TS 39.7074 -35.7000 main 1598 1598 _____________P -1 39.7074 -35.7000 TS 45 6 72
1875259N33318 1875 11 NA NA NOT_NAMED 1875-09-19 12:00:00 TS 39.8000 -35.3000 main 1620 1620 _____________O -1 39.8000 -35.3000 TS 45 6 76
1875259N33318 1875 11 NA NA NOT_NAMED 1875-09-19 15:00:00 TS 39.8574 -34.8998 main 1642 1642 _____________P -1 39.8574 -34.8998 TS 45 6 81
1875259N33318 1875 11 NA NA NOT_NAMED 1875-09-19 18:00:00 TS 39.9000 -34.5000 main 1670 1670 _____________O -1 39.9000 -34.5000 TS 45 6 81
1875259N33318 1875 11 NA NA NOT_NAMED 1875-09-19 21:00:00 TS 39.9499 -34.0999 main 1699 1692 _____________P -1 39.9499 -34.0999 TS 45 6 81
1875259N33318 1875 11 NA NA NOT_NAMED 1875-09-20 00:00:00 TS 40.0000 -33.7000 main 1720 1720 _____________O -1 40.0000 -33.7000 TS 45 6 80
1875259N33318 1875 11 NA NA NOT_NAMED 1875-09-20 03:00:00 TS 40.0574 -33.3001 main 1742 1742 _____________P -1 40.0574 -33.3001 TS 45 6 81
1875259N33318 1875 11 NA NA NOT_NAMED 1875-09-20 06:00:00 ET 40.1000 -32.9000 main 1770 1770 _____________O -1 40.1000 -32.9000 EX 45 6 88
1875259N33318 1875 11 NA NA NOT_NAMED 1875-09-20 09:00:00 ET 40.0768 -32.5440 main 1798 1798 _____________P -1 40.0768 -32.5440 EX 45 6 90
1875259N33318 1875 11 NA NA NOT_NAMED 1875-09-20 12:00:00 ET 40.1000 -32.1000 main 1826 1826 _____________O -1 40.1000 -32.1000 EX 45 9 77
1875259N33318 1875 11 NA NA NOT_NAMED 1875-09-20 15:00:00 ET 40.2778 -31.4458 main 1848 1785 _____________P -1 40.2778 -31.4458 EX 45 11 69
1875259N33318 1875 11 NA NA NOT_NAMED 1875-09-20 18:00:00 ET 40.5000 -30.7000 main 1785 1725 _____________O -1 40.5000 -30.7000 EX 45 12 71
1875259N33318 1875 11 NA NA NOT_NAMED 1875-09-20 21:00:00 ET 40.6496 -29.9992 main 1725 1663 _____________P -1 40.6496 -29.9992 EX 45 11 74
1875259N33318 1875 11 NA NA NOT_NAMED 1875-09-21 00:00:00 ET 40.8000 -29.3000 main 1663 1601 _____________O -1 40.8000 -29.3000 EX 45 11 72
1875259N33318 1875 11 NA NA NOT_NAMED 1875-09-21 03:00:00 ET 40.9996 -28.6001 main 1601 1538 _____________P -1 40.9996 -28.6001 EX 45 11 69
1875259N33318 1875 11 NA NA NOT_NAMED 1875-09-21 06:00:00 TS 41.2000 -27.9000 main 1538 1477 _____________O -1 41.2000 -27.9000 TS 45 11 71
1875259N33318 1875 11 NA NA NOT_NAMED 1875-09-21 09:00:00 TS 41.3633 -27.2003 main 1477 1417 _____________P -1 41.3633 -27.2003 TS 45 11 74
1875259N33318 1875 11 NA NA NOT_NAMED 1875-09-21 12:00:00 ET 41.5000 -26.5000 main 1417 _____________O -1 41.5000 -26.5000 EX 45 11 75

IBTrACS Databaseについて

本データベースは、米国NOAAが公開する1842年以降の世界の熱帯低気圧のベストトラックデータアーカイブInternational Best Track Archive for Climate Stewardship (IBTrACS)を、ウェブで閲覧しやすい形式に変換したものです。

最終更新日:2021-10-21